Main page
METAR-TAF:

METAR-TAF

Airports :

Oxford Airport

Oxford, England

latitude: 51-50-13N, longitude: 1-19-12W, elevation: 82 m

Current weather observation

The report was made 30 minutes ago, at 20:50 UTC
Wind 8 kt from the South/Southwest
Temperature 9°C
Humidity 93%
Pressure 1023 hPa
Visibility 10 km or more
no clouds below 1500 m and no cumulonimbus

METAR: EGTK 132050Z 20008KT CAVOK 09/08 Q1023

Time: 21:20 (21:20 UTC)

Forecast

The report was made 1 hour and 18 minutes ago, at 20:02 UTC
Forecast valid from 13 at 21 UTC to 13 at 23 UTC
Wind 8 kt from the South/Southwest
Visibility 10 km or more
Few clouds at a height of 3000 ft

TAF: EGTK 132002Z 1321/1323 20008KT 9999 FEW030

Weather observations and forecasts of more than 4000 airports (METAR and TAF reports).

The available stations are represented by yellow and red dots on the map.

Hover mouse over dot to see the name of the station.

Then click to see weather observations and forecasts.

To change the map : click on the green buttons with a black cross to zoom in, on the green button with a dash to zoom out, or on the green arrows for adjacent maps.


METAR-TAF: